sensor_id;sensor_type;location;lat;lon;timestamp;pressure;altitude;pressure_sealevel;temperature;humidity
9525;BME280;15940;48.734;9.112;2022-09-23T00:01:01;96832.84;;;9.00;73.03
9525;BME280;15940;48.734;9.112;2022-09-23T00:03:29;96834.34;;;9.01;73.24
9525;BME280;15940;48.734;9.112;2022-09-23T00:05:57;96833.59;;;9.01;73.31
9525;BME280;15940;48.734;9.112;2022-09-23T00:08:24;96838.06;;;9.04;72.79
9525;BME280;15940;48.734;9.112;2022-09-23T00:10:51;96839.06;;;9.06;72.19
9525;BME280;15940;48.734;9.112;2022-09-23T00:13:18;96831.63;;;9.01;72.83
9525;BME280;15940;48.734;9.112;2022-09-23T00:15:46;96832.75;;;8.95;72.20
9525;BME280;15940;48.734;9.112;2022-09-23T00:18:13;96831.53;;;8.96;73.05
9525;BME280;15940;48.734;9.112;2022-09-23T00:20:40;96838.06;;;8.89;72.45
9525;BME280;15940;48.734;9.112;2022-09-23T00:23:07;96833.06;;;8.82;73.53
9525;BME280;15940;48.734;9.112;2022-09-23T00:25:34;96829.03;;;8.77;73.32
9525;BME280;15940;48.734;9.112;2022-09-23T00:28:01;96832.31;;;8.67;73.24
9525;BME280;15940;48.734;9.112;2022-09-23T00:30:28;96830.84;;;8.66;73.79
9525;BME280;15940;48.734;9.112;2022-09-23T00:32:57;96826.53;;;8.74;73.56
9525;BME280;15940;48.734;9.112;2022-09-23T00:35:25;96824.50;;;8.69;73.42
9525;BME280;15940;48.734;9.112;2022-09-23T00:37:51;96825.91;;;8.64;73.81
9525;BME280;15940;48.734;9.112;2022-09-23T00:40:19;96824.13;;;8.61;72.00
9525;BME280;15940;48.734;9.112;2022-09-23T00:42:47;96822.34;;;8.58;73.47
9525;BME280;15940;48.734;9.112;2022-09-23T00:45:15;96819.19;;;8.74;73.29
9525;BME280;15940;48.734;9.112;2022-09-23T00:47:45;96821.31;;;8.70;73.01
9525;BME280;15940;48.734;9.112;2022-09-23T00:50:24;96821.41;;;8.76;73.32
9525;BME280;15940;48.734;9.112;2022-09-23T00:52:54;96820.78;;;8.66;73.17
9525;BME280;15940;48.734;9.112;2022-09-23T00:55:26;96815.66;;;8.68;73.31
9525;BME280;15940;48.734;9.112;2022-09-23T00:57:57;96810.16;;;8.63;72.95
9525;BME280;15940;48.734;9.112;2022-09-23T01:00:24;96819.38;;;8.56;72.32
9525;BME280;15940;48.734;9.112;2022-09-23T01:02:51;96803.34;;;8.52;73.67
9525;BME280;15940;48.734;9.112;2022-09-23T01:05:20;96808.22;;;8.63;72.47
9525;BME280;15940;48.734;9.112;2022-09-23T01:07:48;96812.03;;;8.56;72.45
9525;BME280;15940;48.734;9.112;2022-09-23T01:10:16;96803.47;;;8.58;72.58
9525;BME280;15940;48.734;9.112;2022-09-23T01:12:59;96804.31;;;8.64;72.74
9525;BME280;15940;48.734;9.112;2022-09-23T01:15:39;96799.38;;;8.63;72.54
9525;BME280;15940;48.734;9.112;2022-09-23T01:18:21;96805.69;;;8.74;72.77
9525;BME280;15940;48.734;9.112;2022-09-23T01:21:13;96803.53;;;8.78;72.89
9525;BME280;15940;48.734;9.112;2022-09-23T01:24:14;96807.25;;;8.81;72.37
9525;BME280;15940;48.734;9.112;2022-09-23T01:27:01;96806.88;;;8.88;72.11
9525;BME280;15940;48.734;9.112;2022-09-23T01:30:16;96800.91;;;8.84;72.16
9525;BME280;15940;48.734;9.112;2022-09-23T01:33:03;96800.25;;;8.89;72.07
9525;BME280;15940;48.734;9.112;2022-09-23T01:35:46;96792.72;;;8.78;72.39
9525;BME280;15940;48.734;9.112;2022-09-23T01:38:30;96789.22;;;8.72;72.10
9525;BME280;15940;48.734;9.112;2022-09-23T01:41:03;96787.25;;;8.73;71.96
9525;BME280;15940;48.734;9.112;2022-09-23T01:43:40;96783.13;;;8.77;72.18
9525;BME280;15940;48.734;9.112;2022-09-23T01:46:13;96782.66;;;8.79;72.33
9525;BME280;15940;48.734;9.112;2022-09-23T01:48:48;96780.78;;;8.85;72.06
9525;BME280;15940;48.734;9.112;2022-09-23T01:51:22;96778.31;;;8.81;71.76
9525;BME280;15940;48.734;9.112;2022-09-23T01:53:56;96780.06;;;8.70;72.11
9525;BME280;15940;48.734;9.112;2022-09-23T01:56:29;96780.38;;;8.72;72.49
9525;BME280;15940;48.734;9.112;2022-09-23T01:59:06;96776.88;;;8.71;71.71
9525;BME280;15940;48.734;9.112;2022-09-23T02:01:40;96775.97;;;8.59;72.31
9525;BME280;15940;48.734;9.112;2022-09-23T02:04:14;96775.34;;;8.50;71.99
9525;BME280;15940;48.734;9.112;2022-09-23T02:06:48;96775.38;;;8.35;71.19
9525;BME280;15940;48.734;9.112;2022-09-23T02:09:21;96767.59;;;8.13;71.76
9525;BME280;15940;48.734;9.112;2022-09-23T02:11:51;96770.19;;;8.08;72.07
9525;BME280;15940;48.734;9.112;2022-09-23T02:14:24;96769.94;;;8.06;72.79
9525;BME280;15940;48.734;9.112;2022-09-23T02:16:57;96768.97;;;7.94;72.64
9525;BME280;15940;48.734;9.112;2022-09-23T02:19:32;96776.31;;;7.93;72.86
9525;BME280;15940;48.734;9.112;2022-09-23T02:22:06;96765.53;;;7.93;72.98
9525;BME280;15940;48.734;9.112;2022-09-23T02:24:37;96768.06;;;7.97;73.48
9525;BME280;15940;48.734;9.112;2022-09-23T02:27:18;96766.47;;;8.20;73.73
9525;BME280;15940;48.734;9.112;2022-09-23T02:29:55;96762.22;;;8.43;73.45
9525;BME280;15940;48.734;9.112;2022-09-23T02:32:29;96757.56;;;8.43;72.90
9525;BME280;15940;48.734;9.112;2022-09-23T02:35:06;96761.66;;;8.39;73.03
9525;BME280;15940;48.734;9.112;2022-09-23T02:37:45;96755.34;;;8.42;73.22
9525;BME280;15940;48.734;9.112;2022-09-23T02:40:19;96762.22;;;8.43;71.74
9525;BME280;15940;48.734;9.112;2022-09-23T02:42:56;96760.72;;;8.42;73.13
9525;BME280;15940;48.734;9.112;2022-09-23T02:45:27;96759.59;;;8.34;71.64
9525;BME280;15940;48.734;9.112;2022-09-23T02:48:01;96760.25;;;8.28;73.63
9525;BME280;15940;48.734;9.112;2022-09-23T02:50:31;96756.53;;;8.26;73.49
9525;BME280;15940;48.734;9.112;2022-09-23T02:52:59;96759.13;;;8.20;73.25
9525;BME280;15940;48.734;9.112;2022-09-23T02:55:29;96755.13;;;8.30;73.53
9525;BME280;15940;48.734;9.112;2022-09-23T02:57:57;96749.75;;;8.45;73.05
9525;BME280;15940;48.734;9.112;2022-09-23T03:00:34;96745.81;;;8.31;72.83
9525;BME280;15940;48.734;9.112;2022-09-23T03:03:19;96745.75;;;8.26;73.34
9525;BME280;15940;48.734;9.112;2022-09-23T03:05:55;96736.22;;;8.30;73.53
9525;BME280;15940;48.734;9.112;2022-09-23T03:08:35;96745.47;;;8.39;73.54
9525;BME280;15940;48.734;9.112;2022-09-23T03:11:09;96737.72;;;8.31;73.17
9525;BME280;15940;48.734;9.112;2022-09-23T03:13:51;96742.56;;;8.42;72.76
9525;BME280;15940;48.734;9.112;2022-09-23T03:16:29;96748.91;;;8.39;73.27
9525;BME280;15940;48.734;9.112;2022-09-23T03:19:04;96740.06;;;8.39;73.12
9525;BME280;15940;48.734;9.112;2022-09-23T03:21:47;96749.13;;;8.36;72.62
9525;BME280;15940;48.734;9.112;2022-09-23T03:24:18;96743.31;;;8.28;72.03
9525;BME280;15940;48.734;9.112;2022-09-23T03:26:46;96740.34;;;8.11;72.70
9525;BME280;15940;48.734;9.112;2022-09-23T03:29:15;96744.16;;;8.19;73.35
9525;BME280;15940;48.734;9.112;2022-09-23T03:31:44;96737.81;;;8.22;73.39
9525;BME280;15940;48.734;9.112;2022-09-23T03:34:17;96740.97;;;8.21;73.31
9525;BME280;15940;48.734;9.112;2022-09-23T03:36:52;96738.94;;;8.16;73.28
9525;BME280;15940;48.734;9.112;2022-09-23T03:39:34;96739.69;;;8.16;73.65
9525;BME280;15940;48.734;9.112;2022-09-23T03:42:07;96728.25;;;8.07;73.18
9525;BME280;15940;48.734;9.112;2022-09-23T03:44:42;96744.72;;;8.09;74.05
9525;BME280;15940;48.734;9.112;2022-09-23T03:47:10;96743.41;;;8.04;74.00
9525;BME280;15940;48.734;9.112;2022-09-23T03:49:41;96728.59;;;8.14;73.95
9525;BME280;15940;48.734;9.112;2022-09-23T03:52:10;96736.69;;;8.14;74.26
9525;BME280;15940;48.734;9.112;2022-09-23T03:54:37;96731.88;;;8.18;73.45
9525;BME280;15940;48.734;9.112;2022-09-23T03:57:04;96721.44;;;8.11;74.05
9525;BME280;15940;48.734;9.112;2022-09-23T03:59:32;96724.34;;;8.08;73.78
9525;BME280;15940;48.734;9.112;2022-09-23T04:01:59;96723.78;;;8.03;73.10
9525;BME280;15940;48.734;9.112;2022-09-23T04:04:27;96715.50;;;8.07;73.73
9525;BME280;15940;48.734;9.112;2022-09-23T04:06:58;96708.22;;;8.13;73.63
9525;BME280;15940;48.734;9.112;2022-09-23T04:09:26;96714.94;;;8.18;73.61
9525;BME280;15940;48.734;9.112;2022-09-23T04:11:53;96708.34;;;8.19;73.90
9525;BME280;15940;48.734;9.112;2022-09-23T04:14:21;96705.63;;;8.19;73.57
9525;BME280;15940;48.734;9.112;2022-09-23T04:16:49;96712.72;;;8.16;73.47
9525;BME280;15940;48.734;9.112;2022-09-23T04:19:16;96704.06;;;8.12;74.01
9525;BME280;15940;48.734;9.112;2022-09-23T04:21:44;96702.28;;;8.09;73.81
9525;BME280;15940;48.734;9.112;2022-09-23T04:24:12;96703.13;;;8.15;73.30
9525;BME280;15940;48.734;9.112;2022-09-23T04:26:40;96701.34;;;8.12;73.56
9525;BME280;15940;48.734;9.112;2022-09-23T04:29:07;96696.63;;;8.07;73.52
9525;BME280;15940;48.734;9.112;2022-09-23T04:31:36;96705.47;;;8.08;73.42
9525;BME280;15940;48.734;9.112;2022-09-23T04:34:03;96700.06;;;8.08;73.81
9525;BME280;15940;48.734;9.112;2022-09-23T04:36:30;96703.66;;;8.05;73.10
9525;BME280;15940;48.734;9.112;2022-09-23T04:38:57;96712.88;;;7.83;73.13
9525;BME280;15940;48.734;9.112;2022-09-23T04:41:24;96714.44;;;7.75;74.20
9525;BME280;15940;48.734;9.112;2022-09-23T04:43:52;96704.50;;;7.81;74.53
9525;BME280;15940;48.734;9.112;2022-09-23T04:46:19;96711.19;;;7.71;74.60
9525;BME280;15940;48.734;9.112;2022-09-23T04:48:46;96708.59;;;7.77;74.13
9525;BME280;15940;48.734;9.112;2022-09-23T04:51:16;96706.81;;;7.73;74.66
9525;BME280;15940;48.734;9.112;2022-09-23T04:53:45;96708.31;;;7.74;75.00
9525;BME280;15940;48.734;9.112;2022-09-23T04:56:14;96707.47;;;7.83;74.72
9525;BME280;15940;48.734;9.112;2022-09-23T04:58:42;96700.25;;;7.89;74.46
9525;BME280;15940;48.734;9.112;2022-09-23T05:01:14;96703.75;;;7.95;73.67
9525;BME280;15940;48.734;9.112;2022-09-23T05:03:42;96704.69;;;7.92;74.46
9525;BME280;15940;48.734;9.112;2022-09-23T05:06:10;96713.00;;;7.89;74.60
9525;BME280;15940;48.734;9.112;2022-09-23T05:08:39;96709.34;;;7.92;73.56
9525;BME280;15940;48.734;9.112;2022-09-23T05:11:06;96706.47;;;7.95;74.03
9525;BME280;15940;48.734;9.112;2022-09-23T05:13:34;96712.63;;;7.96;73.92
9525;BME280;15940;48.734;9.112;2022-09-23T05:16:03;96718.56;;;8.00;73.88
9525;BME280;15940;48.734;9.112;2022-09-23T05:18:33;96718.56;;;8.00;73.50
9525;BME280;15940;48.734;9.112;2022-09-23T05:21:01;96717.63;;;8.03;73.64
9525;BME280;15940;48.734;9.112;2022-09-23T05:23:29;96719.13;;;8.04;73.54
9525;BME280;15940;48.734;9.112;2022-09-23T05:25:57;96718.47;;;8.09;73.40
9525;BME280;15940;48.734;9.112;2022-09-23T05:28:25;96721.91;;;8.10;73.60
9525;BME280;15940;48.734;9.112;2022-09-23T05:31:01;96717.47;;;8.07;72.85
9525;BME280;15940;48.734;9.112;2022-09-23T05:33:28;96713.56;;;8.08;73.51
9525;BME280;15940;48.734;9.112;2022-09-23T05:35:57;96713.91;;;8.00;73.01
9525;BME280;15940;48.734;9.112;2022-09-23T05:38:24;96708.25;;;7.98;74.12
9525;BME280;15940;48.734;9.112;2022-09-23T05:40:55;96719.97;;;8.10;73.75
9525;BME280;15940;48.734;9.112;2022-09-23T05:43:23;96722.47;;;8.14;74.12
9525;BME280;15940;48.734;9.112;2022-09-23T05:45:50;96719.88;;;8.19;73.65
9525;BME280;15940;48.734;9.112;2022-09-23T05:48:17;96724.06;;;8.20;73.33
9525;BME280;15940;48.734;9.112;2022-09-23T05:50:49;96715.84;;;8.15;73.65
9525;BME280;15940;48.734;9.112;2022-09-23T05:53:17;96720.13;;;8.21;73.53
9525;BME280;15940;48.734;9.112;2022-09-23T05:55:45;96719.22;;;8.24;73.92
9525;BME280;15940;48.734;9.112;2022-09-23T05:58:12;96723.97;;;8.29;73.11
9525;BME280;15940;48.734;9.112;2022-09-23T06:00:40;96714.91;;;8.32;73.61
9525;BME280;15940;48.734;9.112;2022-09-23T06:03:11;96720.97;;;8.42;73.84
9525;BME280;15940;48.734;9.112;2022-09-23T06:05:38;96722.03;;;8.45;74.03
9525;BME280;15940;48.734;9.112;2022-09-23T06:08:06;96722.72;;;8.60;73.58
9525;BME280;15940;48.734;9.112;2022-09-23T06:10:37;96722.06;;;8.65;71.99
9525;BME280;15940;48.734;9.112;2022-09-23T06:13:04;96718.88;;;8.81;72.40
9525;BME280;15940;48.734;9.112;2022-09-23T06:15:32;96716.38;;;8.98;71.99
9525;BME280;15940;48.734;9.112;2022-09-23T06:17:59;96713.56;;;9.28;70.90
9525;BME280;15940;48.734;9.112;2022-09-23T06:20:27;96705.78;;;9.35;70.59
9525;BME280;15940;48.734;9.112;2022-09-23T06:22:54;96720.38;;;9.43;70.10
9525;BME280;15940;48.734;9.112;2022-09-23T06:25:22;96707.88;;;9.46;69.64
9525;BME280;15940;48.734;9.112;2022-09-23T06:27:53;96711.00;;;9.39;68.94
9525;BME280;15940;48.734;9.112;2022-09-23T06:30:21;96711.88;;;9.51;69.29
9525;BME280;15940;48.734;9.112;2022-09-23T06:32:50;96712.06;;;9.67;69.57
9525;BME280;15940;48.734;9.112;2022-09-23T06:35:17;96707.09;;;9.86;68.22
9525;BME280;15940;48.734;9.112;2022-09-23T06:37:46;96707.94;;;9.98;68.17
9525;BME280;15940;48.734;9.112;2022-09-23T06:40:14;96704.16;;;10.16;68.16
9525;BME280;15940;48.734;9.112;2022-09-23T06:42:41;96703.53;;;10.26;67.66
9525;BME280;15940;48.734;9.112;2022-09-23T06:45:12;96713.81;;;10.22;67.08
9525;BME280;15940;48.734;9.112;2022-09-23T06:47:40;96711.41;;;10.30;67.79
9525;BME280;15940;48.734;9.112;2022-09-23T06:50:10;96712.63;;;10.29;67.05
9525;BME280;15940;48.734;9.112;2022-09-23T06:52:38;96711.66;;;10.32;66.85
9525;BME280;15940;48.734;9.112;2022-09-23T06:55:06;96711.97;;;10.40;67.03
9525;BME280;15940;48.734;9.112;2022-09-23T06:57:34;96719.41;;;10.45;66.00
9525;BME280;15940;48.734;9.112;2022-09-23T07:00:02;96717.28;;;10.54;66.18
9525;BME280;15940;48.734;9.112;2022-09-23T07:02:30;96724.28;;;10.72;65.92
9525;BME280;15940;48.734;9.112;2022-09-23T07:04:57;96718.16;;;10.77;65.80
9525;BME280;15940;48.734;9.112;2022-09-23T07:07:24;96726.06;;;10.81;65.32
9525;BME280;15940;48.734;9.112;2022-09-23T07:09:51;96717.25;;;10.92;65.36
9525;BME280;15940;48.734;9.112;2022-09-23T07:12:19;96718.00;;;10.92;65.20
9525;BME280;15940;48.734;9.112;2022-09-23T07:14:46;96721.25;;;11.02;65.09
9525;BME280;15940;48.734;9.112;2022-09-23T07:17:13;96715.88;;;11.13;64.84
9525;BME280;15940;48.734;9.112;2022-09-23T07:19:41;96722.34;;;11.27;63.75
9525;BME280;15940;48.734;9.112;2022-09-23T07:22:08;96717.25;;;11.45;63.68
9525;BME280;15940;48.734;9.112;2022-09-23T07:24:36;96719.09;;;11.77;62.84
9525;BME280;15940;48.734;9.112;2022-09-23T07:27:03;96723.59;;;12.08;60.75
9525;BME280;15940;48.734;9.112;2022-09-23T07:29:30;96715.72;;;12.21;61.32
9525;BME280;15940;48.734;9.112;2022-09-23T07:31:57;96710.53;;;12.56;61.14
9525;BME280;15940;48.734;9.112;2022-09-23T07:34:24;96722.13;;;12.63;59.83
9525;BME280;15940;48.734;9.112;2022-09-23T07:36:53;96719.63;;;12.76;59.38
9525;BME280;15940;48.734;9.112;2022-09-23T07:39:20;96712.50;;;12.73;58.43
9525;BME280;15940;48.734;9.112;2022-09-23T07:41:46;96718.91;;;12.58;58.04
9525;BME280;15940;48.734;9.112;2022-09-23T07:44:13;96717.69;;;12.48;59.59
9525;BME280;15940;48.734;9.112;2022-09-23T07:46:41;96723.13;;;12.32;59.77
9525;BME280;15940;48.734;9.112;2022-09-23T07:49:08;96715.50;;;12.41;60.41
9525;BME280;15940;48.734;9.112;2022-09-23T07:51:38;96715.50;;;12.41;60.37
9525;BME280;15940;48.734;9.112;2022-09-23T07:54:10;96723.63;;;12.41;59.89
9525;BME280;15940;48.734;9.112;2022-09-23T07:56:38;96721.41;;;12.51;59.44
9525;BME280;15940;48.734;9.112;2022-09-23T07:59:07;96721.16;;;12.54;59.57
9525;BME280;15940;48.734;9.112;2022-09-23T08:01:37;96722.38;;;12.48;58.52
9525;BME280;15940;48.734;9.112;2022-09-23T08:04:10;96717.19;;;12.39;60.18
9525;BME280;15940;48.734;9.112;2022-09-23T08:06:40;96722.38;;;12.37;60.57
9525;BME280;15940;48.734;9.112;2022-09-23T08:09:10;96723.63;;;12.36;60.68
9525;BME280;15940;48.734;9.112;2022-09-23T08:11:37;96730.28;;;12.35;60.90
9525;BME280;15940;48.734;9.112;2022-09-23T08:14:06;96727.56;;;12.46;61.74
9525;BME280;15940;48.734;9.112;2022-09-23T08:16:33;96730.03;;;12.49;60.34
9525;BME280;15940;48.734;9.112;2022-09-23T08:19:00;96727.31;;;12.66;60.91
9525;BME280;15940;48.734;9.112;2022-09-23T08:21:27;96729.78;;;12.81;60.05
9525;BME280;15940;48.734;9.112;2022-09-23T08:23:54;96736.66;;;12.99;61.09
9525;BME280;15940;48.734;9.112;2022-09-23T08:26:23;96733.19;;;13.09;59.84
9525;BME280;15940;48.734;9.112;2022-09-23T08:28:50;96731.66;;;13.31;59.81
9525;BME280;15940;48.734;9.112;2022-09-23T08:31:20;96731.13;;;13.38;59.24
9525;BME280;15940;48.734;9.112;2022-09-23T08:33:47;96724.91;;;13.49;59.52
9525;BME280;15940;48.734;9.112;2022-09-23T08:36:18;96721.25;;;13.82;59.73
9525;BME280;15940;48.734;9.112;2022-09-23T08:38:45;96719.69;;;13.97;57.39
9525;BME280;15940;48.734;9.112;2022-09-23T08:41:19;96720.66;;;14.00;57.37
9525;BME280;15940;48.734;9.112;2022-09-23T08:43:55;96718.16;;;14.02;56.68
9525;BME280;15940;48.734;9.112;2022-09-23T08:46:31;96719.59;;;14.14;57.19
9525;BME280;15940;48.734;9.112;2022-09-23T08:49:01;96715.69;;;14.04;56.23
9525;BME280;15940;48.734;9.112;2022-09-23T08:51:34;96726.28;;;14.13;56.39
9525;BME280;15940;48.734;9.112;2022-09-23T08:54:02;96723.28;;;14.17;56.39
9525;BME280;15940;48.734;9.112;2022-09-23T08:56:29;96725.41;;;14.29;56.33
9525;BME280;15940;48.734;9.112;2022-09-23T08:59:04;96722.81;;;14.48;56.60
9525;BME280;15940;48.734;9.112;2022-09-23T09:01:40;96727.44;;;14.59;56.12
9525;BME280;15940;48.734;9.112;2022-09-23T09:04:16;96726.91;;;14.91;54.63
9525;BME280;15940;48.734;9.112;2022-09-23T09:06:48;96724.28;;;15.04;54.48
9525;BME280;15940;48.734;9.112;2022-09-23T09:09:23;96723.09;;;14.99;55.16
9525;BME280;15940;48.734;9.112;2022-09-23T09:11:55;96724.50;;;15.06;55.76
9525;BME280;15940;48.734;9.112;2022-09-23T09:14:35;96725.03;;;15.29;55.64
9525;BME280;15940;48.734;9.112;2022-09-23T09:17:11;96719.97;;;15.57;53.88
9525;BME280;15940;48.734;9.112;2022-09-23T09:19:53;96722.41;;;15.80;54.62
9525;BME280;15940;48.734;9.112;2022-09-23T09:22:32;96714.16;;;16.04;53.72
9525;BME280;15940;48.734;9.112;2022-09-23T09:25:17;96707.50;;;15.99;54.19
9525;BME280;15940;48.734;9.112;2022-09-23T09:27:47;96717.09;;;15.87;53.79
9525;BME280;15940;48.734;9.112;2022-09-23T09:30:16;96706.69;;;15.86;53.84
9525;BME280;15940;48.734;9.112;2022-09-23T09:32:47;96702.50;;;15.66;53.68
9525;BME280;15940;48.734;9.112;2022-09-23T09:35:24;96699.91;;;15.92;55.31
9525;BME280;15940;48.734;9.112;2022-09-23T09:37:53;96705.00;;;16.02;54.35
9525;BME280;15940;48.734;9.112;2022-09-23T09:40:20;96705.34;;;16.11;54.48
9525;BME280;15940;48.734;9.112;2022-09-23T09:42:49;96700.44;;;16.23;53.21
9525;BME280;15940;48.734;9.112;2022-09-23T09:45:27;96689.97;;;16.72;54.30
9525;BME280;15940;48.734;9.112;2022-09-23T09:48:07;96684.28;;;17.10;52.60
9525;BME280;15940;48.734;9.112;2022-09-23T09:50:46;96679.84;;;17.33;52.03
9525;BME280;15940;48.734;9.112;2022-09-23T09:53:20;96678.63;;;17.68;50.71
9525;BME280;15940;48.734;9.112;2022-09-23T09:56:01;96679.94;;;17.41;50.65
9525;BME280;15940;48.734;9.112;2022-09-23T09:58:35;96678.66;;;18.03;50.63
9525;BME280;15940;48.734;9.112;2022-09-23T10:01:07;96680.81;;;18.38;50.88
9525;BME280;15940;48.734;9.112;2022-09-23T10:03:38;96676.97;;;18.41;48.33
9525;BME280;15940;48.734;9.112;2022-09-23T10:06:20;96674.25;;;18.20;50.76
9525;BME280;15940;48.734;9.112;2022-09-23T10:09:12;96669.19;;;18.53;50.24
9525;BME280;15940;48.734;9.112;2022-09-23T10:11:42;96664.19;;;18.93;50.10
9525;BME280;15940;48.734;9.112;2022-09-23T10:14:27;96667.00;;;19.01;49.15
9525;BME280;15940;48.734;9.112;2022-09-23T10:17:03;96669.44;;;18.83;48.01
9525;BME280;15940;48.734;9.112;2022-09-23T10:19:33;96661.72;;;19.10;49.17
9525;BME280;15940;48.734;9.112;2022-09-23T10:22:03;96655.53;;;19.54;47.37
9525;BME280;15940;48.734;9.112;2022-09-23T10:24:35;96663.06;;;19.61;46.89
9525;BME280;15940;48.734;9.112;2022-09-23T10:27:04;96662.06;;;19.94;47.92
9525;BME280;15940;48.734;9.112;2022-09-23T10:29:37;96664.84;;;20.02;46.58
9525;BME280;15940;48.734;9.112;2022-09-23T10:32:27;96659.72;;;19.55;46.74
9525;BME280;15940;48.734;9.112;2022-09-23T10:35:10;96657.84;;;19.34;47.55
9525;BME280;15940;48.734;9.112;2022-09-23T10:37:40;96657.38;;;19.59;48.11
9525;BME280;15940;48.734;9.112;2022-09-23T10:40:18;96646.59;;;19.68;46.63
9525;BME280;15940;48.734;9.112;2022-09-23T10:43:34;96652.16;;;19.91;45.63
9525;BME280;15940;48.734;9.112;2022-09-23T10:46:39;96648.91;;;20.31;47.77
9525;BME280;15940;48.734;9.112;2022-09-23T10:52:55;96644.53;;;20.59;45.13
9525;BME280;15940;48.734;9.112;2022-09-23T10:55:53;96645.44;;;20.61;46.35
9525;BME280;15940;48.734;9.112;2022-09-23T11:01:50;96637.69;;;19.98;46.94
9525;BME280;15940;48.734;9.112;2022-09-23T11:05:03;96643.91;;;19.40;48.20
9525;BME280;15940;48.734;9.112;2022-09-23T11:07:38;96634.09;;;19.08;49.11
9525;BME280;15940;48.734;9.112;2022-09-23T11:10:43;96630.09;;;19.17;50.62
9525;BME280;15940;48.734;9.112;2022-09-23T11:13:29;96641.53;;;19.36;48.87
9525;BME280;15940;48.734;9.112;2022-09-23T11:16:08;96623.00;;;19.29;49.21
9525;BME280;15940;48.734;9.112;2022-09-23T11:19:09;96626.59;;;19.60;49.60
9525;BME280;15940;48.734;9.112;2022-09-23T11:22:08;96620.06;;;19.86;50.08
9525;BME280;15940;48.734;9.112;2022-09-23T11:25:00;96617.00;;;20.13;47.49
9525;BME280;15940;48.734;9.112;2022-09-23T11:27:52;96614.06;;;20.57;48.53
9525;BME280;15940;48.734;9.112;2022-09-23T11:30:31;96611.09;;;20.85;45.97
9525;BME280;15940;48.734;9.112;2022-09-23T11:33:27;96610.69;;;20.96;46.45
9525;BME280;15940;48.734;9.112;2022-09-23T11:36:02;96599.50;;;20.87;46.04
9525;BME280;15940;48.734;9.112;2022-09-23T11:38:36;96606.91;;;20.31;46.75
9525;BME280;15940;48.734;9.112;2022-09-23T11:41:14;96600.50;;;20.13;48.23
9525;BME280;15940;48.734;9.112;2022-09-23T11:43:45;96599.19;;;20.06;47.33
9525;BME280;15940;48.734;9.112;2022-09-23T11:46:26;96596.81;;;20.03;48.58
9525;BME280;15940;48.734;9.112;2022-09-23T11:49:02;96592.03;;;19.80;46.27
9525;BME280;15940;48.734;9.112;2022-09-23T11:51:40;96596.41;;;19.68;46.93
9525;BME280;15940;48.734;9.112;2022-09-23T11:54:16;96589.28;;;19.80;46.84
9525;BME280;15940;48.734;9.112;2022-09-23T11:56:49;96591.88;;;20.32;48.97
9525;BME280;15940;48.734;9.112;2022-09-23T11:59:27;96591.63;;;20.83;47.38
9525;BME280;15940;48.734;9.112;2022-09-23T12:02:00;96594.31;;;21.06;46.95
9525;BME280;15940;48.734;9.112;2022-09-23T12:04:34;96588.19;;;21.23;43.99
9525;BME280;15940;48.734;9.112;2022-09-23T12:07:10;96586.81;;;21.47;46.08
9525;BME280;15940;48.734;9.112;2022-09-23T12:09:46;96582.88;;;21.57;44.85
9525;BME280;15940;48.734;9.112;2022-09-23T12:12:23;96585.00;;;21.74;44.45
9525;BME280;15940;48.734;9.112;2022-09-23T12:15:00;96588.91;;;21.63;44.80
9525;BME280;15940;48.734;9.112;2022-09-23T12:17:56;96584.94;;;21.49;46.58
9525;BME280;15940;48.734;9.112;2022-09-23T12:20:52;96583.31;;;20.98;45.35
9525;BME280;15940;48.734;9.112;2022-09-23T12:26:12;96582.16;;;20.23;47.34
9525;BME280;15940;48.734;9.112;2022-09-23T12:28:45;96579.94;;;19.83;46.98
9525;BME280;15940;48.734;9.112;2022-09-23T12:31:16;96587.25;;;19.73;47.77
9525;BME280;15940;48.734;9.112;2022-09-23T12:33:49;96585.81;;;19.95;48.46
9525;BME280;15940;48.734;9.112;2022-09-23T12:36:24;96583.44;;;20.14;48.42
9525;BME280;15940;48.734;9.112;2022-09-23T12:38:57;96582.34;;;20.10;47.94
9525;BME280;15940;48.734;9.112;2022-09-23T12:41:31;96581.81;;;20.19;48.03
9525;BME280;15940;48.734;9.112;2022-09-23T12:44:25;96577.38;;;20.39;48.13
9525;BME280;15940;48.734;9.112;2022-09-23T12:47:29;96563.97;;;20.58;44.87
9525;BME280;15940;48.734;9.112;2022-09-23T12:49:56;96568.56;;;20.56;44.77
9525;BME280;15940;48.734;9.112;2022-09-23T12:52:27;96567.47;;;20.51;46.39
9525;BME280;15940;48.734;9.112;2022-09-23T12:54:57;96568.56;;;20.25;46.14
9525;BME280;15940;48.734;9.112;2022-09-23T12:57:42;96562.38;;;20.09;47.63
9525;BME280;15940;48.734;9.112;2022-09-23T13:00:23;96553.38;;;20.09;48.16
9525;BME280;15940;48.734;9.112;2022-09-23T13:02:58;96555.94;;;20.07;47.65
9525;BME280;15940;48.734;9.112;2022-09-23T13:05:47;96555.38;;;20.16;45.08
9525;BME280;15940;48.734;9.112;2022-09-23T13:08:34;96549.34;;;20.10;47.08
9525;BME280;15940;48.734;9.112;2022-09-23T13:11:05;96531.19;;;20.14;46.89
9525;BME280;15940;48.734;9.112;2022-09-23T13:13:37;96543.13;;;20.02;47.59
9525;BME280;15940;48.734;9.112;2022-09-23T13:16:11;96530.66;;;19.93;48.02
9525;BME280;15940;48.734;9.112;2022-09-23T13:18:57;96532.69;;;20.00;47.02
9525;BME280;15940;48.734;9.112;2022-09-23T13:22:02;96531.75;;;19.90;49.32
9525;BME280;15940;48.734;9.112;2022-09-23T13:24:44;96533.75;;;19.74;48.80
9525;BME280;15940;48.734;9.112;2022-09-23T13:27:18;96543.22;;;19.50;49.20
9525;BME280;15940;48.734;9.112;2022-09-23T13:29:52;96535.69;;;19.35;50.09
9525;BME280;15940;48.734;9.112;2022-09-23T13:32:28;96533.28;;;19.24;50.19
9525;BME280;15940;48.734;9.112;2022-09-23T13:35:02;96535.63;;;19.05;49.85
9525;BME280;15940;48.734;9.112;2022-09-23T13:37:40;96533.34;;;18.88;52.05
9525;BME280;15940;48.734;9.112;2022-09-23T13:40:18;96533.84;;;18.79;50.57
9525;BME280;15940;48.734;9.112;2022-09-23T13:42:49;96526.50;;;18.74;51.55
9525;BME280;15940;48.734;9.112;2022-09-23T13:45:22;96530.38;;;18.78;51.04
9525;BME280;15940;48.734;9.112;2022-09-23T13:47:52;96525.16;;;18.96;50.75
9525;BME280;15940;48.734;9.112;2022-09-23T13:50:22;96527.41;;;19.20;50.97
9525;BME280;15940;48.734;9.112;2022-09-23T13:52:51;96522.31;;;19.24;50.83
9525;BME280;15940;48.734;9.112;2022-09-23T13:55:29;96526.59;;;19.56;49.30
9525;BME280;15940;48.734;9.112;2022-09-23T13:58:02;96528.63;;;19.86;49.01
9525;BME280;15940;48.734;9.112;2022-09-23T14:00:37;96523.50;;;19.75;49.21